createdAt,value
2022-09-24T00:01:32.454Z,3.78
2022-09-24T00:04:01.772Z,4.10
2022-09-24T00:06:30.822Z,3.75
2022-09-24T00:08:58.461Z,3.97
2022-09-24T00:11:27.562Z,4.13
2022-09-24T00:13:56.503Z,3.92
2022-09-24T00:16:29.067Z,3.95
2022-09-24T00:18:55.865Z,3.60
2022-09-24T00:21:25.770Z,3.88
2022-09-24T00:24:00.900Z,3.67
2022-09-24T00:26:46.974Z,3.20
2022-09-24T00:29:17.407Z,3.35
2022-09-24T00:31:43.949Z,3.38
2022-09-24T00:34:11.104Z,3.55
2022-09-24T00:36:38.249Z,3.25
2022-09-24T00:39:06.157Z,3.58
2022-09-24T00:41:35.767Z,3.30
2022-09-24T00:44:54.819Z,3.67
2022-09-24T00:47:34.775Z,3.80
2022-09-24T00:50:08.405Z,3.83
2022-09-24T00:52:40.974Z,4.07
2022-09-24T00:55:08.874Z,3.38
2022-09-24T00:57:37.036Z,4.03
2022-09-24T01:00:04.995Z,3.55
2022-09-24T01:02:32.738Z,4.03
2022-09-24T01:05:00.203Z,3.53
2022-09-24T01:07:26.707Z,3.80
2022-09-24T01:09:53.741Z,3.75
2022-09-24T01:12:42.951Z,3.83
2022-09-24T01:15:32.272Z,3.95
2022-09-24T01:18:09.430Z,3.83
2022-09-24T01:20:53.764Z,3.97
2022-09-24T01:23:48.380Z,3.95
2022-09-24T01:26:31.275Z,4.20
2022-09-24T01:29:22.594Z,4.57
2022-09-24T01:32:06.174Z,4.55
2022-09-24T01:34:58.432Z,4.38
2022-09-24T01:37:28.965Z,4.40
2022-09-24T01:39:57.387Z,4.22
2022-09-24T01:42:27.934Z,4.47
2022-09-24T01:44:55.452Z,4.68
2022-09-24T01:47:40.371Z,4.57
2022-09-24T01:50:13.032Z,4.90
2022-09-24T01:53:05.276Z,4.97
2022-09-24T01:55:42.103Z,4.90
2022-09-24T01:58:17.601Z,4.55
2022-09-24T02:00:48.225Z,4.20
2022-09-24T02:03:19.187Z,4.13
2022-09-24T02:05:53.747Z,4.88
2022-09-24T02:08:23.698Z,4.75
2022-09-24T02:10:50.150Z,5.18
2022-09-24T02:13:20.342Z,4.88
2022-09-24T02:15:50.629Z,4.70
2022-09-24T02:18:21.786Z,4.20
2022-09-24T02:20:50.752Z,4.53
2022-09-24T02:23:19.388Z,5.13
2022-09-24T02:25:54.189Z,5.07
2022-09-24T02:28:21.399Z,5.22
2022-09-24T02:30:53.002Z,5.40
2022-09-24T02:33:42.580Z,5.18
2022-09-24T02:36:09.524Z,5.13
2022-09-24T02:38:37.469Z,5.00
2022-09-24T02:41:08.284Z,5.40
2022-09-24T02:43:36.309Z,5.15
2022-09-24T02:46:03.423Z,4.82
2022-09-24T02:48:30.030Z,4.75
2022-09-24T02:50:56.527Z,5.13
2022-09-24T02:53:23.550Z,5.32
2022-09-24T02:55:50.083Z,5.13
2022-09-24T02:58:17.311Z,4.90
2022-09-24T03:00:43.798Z,5.53
2022-09-24T03:03:10.388Z,4.57
2022-09-24T03:05:37.394Z,4.88
2022-09-24T03:08:04.547Z,5.38
2022-09-24T03:10:31.185Z,5.15
2022-09-24T03:12:58.070Z,4.88
2022-09-24T03:15:26.099Z,5.60
2022-09-24T03:17:52.586Z,4.88
2022-09-24T03:20:19.550Z,5.40
2022-09-24T03:22:51.447Z,5.70
2022-09-24T03:25:19.903Z,5.28
2022-09-24T03:27:47.242Z,5.45
2022-09-24T03:30:33.605Z,5.95
2022-09-24T03:33:00.301Z,5.38
2022-09-24T03:35:27.227Z,5.05
2022-09-24T03:37:53.732Z,5.70
2022-09-24T03:40:20.691Z,5.82
2022-09-24T03:42:47.673Z,6.75
2022-09-24T03:45:14.170Z,7.30
2022-09-24T03:47:41.784Z,6.80
2022-09-24T03:50:11.867Z,6.40
2022-09-24T03:52:41.156Z,6.70
2022-09-24T03:55:08.830Z,7.28
2022-09-24T03:57:35.427Z,6.85
2022-09-24T04:00:03.031Z,6.43
2022-09-24T04:02:29.562Z,6.85
2022-09-24T04:04:56.524Z,7.30
2022-09-24T04:07:23.027Z,7.07
2022-09-24T04:09:50.065Z,8.07
2022-09-24T04:12:16.564Z,7.85
2022-09-24T04:14:43.107Z,7.70
2022-09-24T04:17:10.683Z,7.20
2022-09-24T04:19:37.205Z,7.55
2022-09-24T04:22:04.151Z,7.03
2022-09-24T04:24:31.051Z,8.18
2022-09-24T04:26:57.988Z,8.27
2022-09-24T04:29:24.901Z,9.18
2022-09-24T04:31:51.882Z,8.95
2022-09-24T04:34:18.853Z,8.73
2022-09-24T04:36:46.091Z,8.52
2022-09-24T04:39:12.793Z,7.85
2022-09-24T04:41:40.157Z,8.23
2022-09-24T04:44:07.205Z,8.82
2022-09-24T04:46:34.348Z,8.18
2022-09-24T04:49:01.240Z,8.60
2022-09-24T04:51:28.217Z,8.73
2022-09-24T04:53:54.772Z,8.93
2022-09-24T04:56:21.703Z,9.48
2022-09-24T04:58:51.200Z,8.50
2022-09-24T05:01:18.665Z,9.07
2022-09-24T05:03:45.379Z,10.02
2022-09-24T05:06:12.766Z,9.90
2022-09-24T05:08:39.685Z,9.15
2022-09-24T05:11:06.381Z,9.05
2022-09-24T05:13:33.487Z,9.38
2022-09-24T05:16:00.847Z,9.95
2022-09-24T05:18:27.884Z,10.35
2022-09-24T05:20:54.896Z,9.48
2022-09-24T05:23:21.596Z,9.98
2022-09-24T05:26:07.232Z,9.80
2022-09-24T05:28:33.774Z,9.52
2022-09-24T05:31:00.428Z,9.55
2022-09-24T05:33:27.024Z,8.73
2022-09-24T05:35:55.288Z,9.43
2022-09-24T05:38:21.942Z,10.90
2022-09-24T05:40:48.946Z,11.55
2022-09-24T05:43:17.351Z,11.85
2022-09-24T05:45:47.720Z,11.40
2022-09-24T05:48:14.675Z,11.68
2022-09-24T05:50:42.417Z,10.95
2022-09-24T05:53:09.823Z,11.25
2022-09-24T05:55:36.681Z,10.48
2022-09-24T05:58:08.332Z,10.43
2022-09-24T06:00:35.924Z,10.27
2022-09-24T06:03:11.060Z,11.00
2022-09-24T06:05:38.056Z,11.15
2022-09-24T06:08:05.245Z,10.27
2022-09-24T06:10:32.946Z,12.27
2022-09-24T06:12:59.496Z,12.27
2022-09-24T06:15:27.582Z,11.20
2022-09-24T06:17:54.743Z,12.32
2022-09-24T06:20:23.094Z,11.40
2022-09-24T06:22:50.468Z,11.68
2022-09-24T06:25:16.976Z,11.63
2022-09-24T06:27:43.875Z,11.77
2022-09-24T06:30:11.696Z,12.27
2022-09-24T06:32:38.612Z,11.73
2022-09-24T06:35:06.464Z,13.25
2022-09-24T06:37:33.965Z,14.55
2022-09-24T06:40:00.601Z,13.63
2022-09-24T06:42:28.130Z,13.52
2022-09-24T06:44:54.621Z,12.35
2022-09-24T06:47:21.125Z,13.65
2022-09-24T06:49:48.334Z,15.80
2022-09-24T06:52:15.240Z,17.10
2022-09-24T06:54:41.795Z,15.35
2022-09-24T06:57:11.213Z,15.48
2022-09-24T06:59:38.179Z,14.38
2022-09-24T07:02:04.747Z,14.48
2022-09-24T07:04:31.716Z,14.48
2022-09-24T07:07:16.901Z,15.32
2022-09-24T07:09:43.861Z,13.60
2022-09-24T07:12:10.409Z,13.43
2022-09-24T07:14:37.375Z,12.60
2022-09-24T07:17:03.869Z,13.02
2022-09-24T07:19:30.775Z,11.93
2022-09-24T07:21:57.684Z,12.65
2022-09-24T07:24:24.212Z,13.02
2022-09-24T07:26:51.126Z,12.70
2022-09-24T07:29:17.716Z,12.75
2022-09-24T07:31:44.276Z,11.88
2022-09-24T07:34:11.324Z,11.63
2022-09-24T07:36:37.878Z,11.15
2022-09-24T07:39:05.065Z,11.57
2022-09-24T07:41:32.323Z,10.52
2022-09-24T07:43:58.887Z,12.55
2022-09-24T07:46:25.717Z,12.52
2022-09-24T07:48:56.687Z,11.25
2022-09-24T07:51:25.762Z,11.85
2022-09-24T07:53:53.422Z,11.55
2022-09-24T07:56:20.120Z,10.10
2022-09-24T07:58:51.519Z,10.63
2022-09-24T08:01:18.876Z,13.32
2022-09-24T08:03:48.996Z,13.45
2022-09-24T08:06:15.935Z,12.90
2022-09-24T08:08:43.799Z,11.82
2022-09-24T08:11:13.268Z,11.27
2022-09-24T08:13:40.205Z,11.07
2022-09-24T08:16:07.164Z,10.82
2022-09-24T08:18:34.160Z,9.73
2022-09-24T08:21:07.080Z,9.98
2022-09-24T08:23:34.308Z,11.00
2022-09-24T08:26:01.365Z,10.10
2022-09-24T08:28:28.423Z,10.07
2022-09-24T08:31:00.812Z,9.27
2022-09-24T08:33:28.657Z,10.02
2022-09-24T08:35:55.311Z,9.57
2022-09-24T08:38:22.277Z,10.18
2022-09-24T08:41:13.685Z,9.80
2022-09-24T08:44:00.831Z,9.90
2022-09-24T08:46:53.253Z,9.43
2022-09-24T08:49:30.779Z,8.55
2022-09-24T08:52:37.533Z,8.98
2022-09-24T08:55:39.509Z,10.40
2022-09-24T08:58:21.130Z,10.32
2022-09-24T09:00:51.917Z,8.52
2022-09-24T09:03:29.400Z,9.50
2022-09-24T09:06:12.096Z,8.70
2022-09-24T09:09:16.544Z,9.50
2022-09-24T09:11:50.495Z,8.43
2022-09-24T09:14:19.400Z,8.77
2022-09-24T09:17:20.318Z,9.57
2022-09-24T09:19:54.104Z,9.32
2022-09-24T09:22:25.240Z,9.63
2022-09-24T09:24:53.517Z,8.48
2022-09-24T09:27:22.198Z,8.55
2022-09-24T09:29:55.042Z,8.27
2022-09-24T09:32:38.865Z,8.68
2022-09-24T09:35:39.314Z,8.45
2022-09-24T09:38:19.044Z,7.55
2022-09-24T09:40:57.785Z,8.05
2022-09-24T09:43:25.861Z,7.85
2022-09-24T09:46:16.540Z,7.45
2022-09-24T09:48:52.601Z,8.07
2022-09-24T09:51:23.368Z,7.93
2022-09-24T09:53:58.661Z,8.43
2022-09-24T09:56:38.058Z,8.05
2022-09-24T09:59:27.347Z,7.43
2022-09-24T10:01:58.170Z,8.20
2022-09-24T10:04:39.984Z,7.95
2022-09-24T10:07:12.408Z,7.63
2022-09-24T10:09:40.889Z,6.95
2022-09-24T10:12:18.146Z,7.70
2022-09-24T10:14:45.561Z,8.77
2022-09-24T10:17:17.226Z,8.70
2022-09-24T10:19:50.611Z,9.60
2022-09-24T10:22:23.598Z,9.27
2022-09-24T10:24:51.266Z,9.93
2022-09-24T10:27:25.928Z,10.48
2022-09-24T10:30:15.167Z,10.60
2022-09-24T10:32:41.702Z,9.38
2022-09-24T10:35:28.909Z,10.50
2022-09-24T10:38:00.512Z,10.23
2022-09-24T10:40:38.364Z,10.73
2022-09-24T10:43:06.347Z,10.25
2022-09-24T10:46:05.662Z,9.20
2022-09-24T10:48:44.432Z,10.13
2022-09-24T10:51:46.971Z,10.20
2022-09-24T10:54:42.994Z,11.00
2022-09-24T10:57:22.127Z,9.93
2022-09-24T10:59:55.320Z,12.02
2022-09-24T11:02:42.363Z,11.50
2022-09-24T11:05:19.207Z,10.65
2022-09-24T11:08:32.798Z,11.52
2022-09-24T11:11:23.836Z,10.73
2022-09-24T11:14:15.565Z,10.10
2022-09-24T11:17:04.045Z,11.00
2022-09-24T11:19:59.720Z,11.15
2022-09-24T11:22:32.194Z,9.82
2022-09-24T11:25:18.640Z,10.57
2022-09-24T11:28:05.851Z,9.85
2022-09-24T11:30:55.525Z,10.10
2022-09-24T11:33:55.116Z,9.75
2022-09-24T11:36:59.528Z,9.73
2022-09-24T11:39:47.358Z,9.27
2022-09-24T11:42:34.202Z,9.23
2022-09-24T11:45:11.643Z,8.85
2022-09-24T11:47:56.641Z,8.55
2022-09-24T11:50:33.817Z,9.27
2022-09-24T11:53:33.796Z,8.88
2022-09-24T11:56:13.437Z,7.75
2022-09-24T11:58:49.290Z,8.68
2022-09-24T12:01:21.119Z,8.60
2022-09-24T12:03:55.709Z,8.15
2022-09-24T12:06:27.738Z,9.20
2022-09-24T12:09:18.379Z,8.48
2022-09-24T12:11:50.215Z,8.73
2022-09-24T12:14:37.573Z,8.18
2022-09-24T12:17:09.961Z,8.13
2022-09-24T12:20:04.983Z,7.78
2022-09-24T12:22:33.314Z,7.53
2022-09-24T12:25:00.564Z,8.43
2022-09-24T12:27:35.961Z,7.90
2022-09-24T12:30:33.399Z,8.00
2022-09-24T12:33:21.354Z,7.47
2022-09-24T12:36:01.822Z,8.23
2022-09-24T12:38:42.864Z,7.93
2022-09-24T12:41:31.797Z,7.97
2022-09-24T12:44:06.952Z,8.15
2022-09-24T12:46:39.253Z,9.05
2022-09-24T12:49:17.950Z,7.88
2022-09-24T12:51:44.822Z,7.93
2022-09-24T12:54:29.821Z,7.72
2022-09-24T12:57:15.669Z,8.05
2022-09-24T12:59:54.056Z,8.10
2022-09-24T13:02:26.498Z,7.88
2022-09-24T13:05:01.940Z,7.53
2022-09-24T13:07:34.416Z,8.32
2022-09-24T13:10:32.270Z,7.60
2022-09-24T13:13:00.695Z,8.35
2022-09-24T13:15:39.759Z,7.78
2022-09-24T13:18:10.391Z,7.53
2022-09-24T13:20:45.003Z,8.40
2022-09-24T13:23:19.961Z,8.38
2022-09-24T13:26:03.654Z,9.57
2022-09-24T13:28:44.903Z,8.68
2022-09-24T13:31:40.276Z,9.40
2022-09-24T13:34:10.305Z,7.68
2022-09-24T13:36:54.778Z,8.15
2022-09-24T13:39:46.319Z,8.52
2022-09-24T13:42:23.031Z,8.63
2022-09-24T13:44:54.784Z,8.23
2022-09-24T13:47:47.351Z,8.38
2022-09-24T13:53:24.880Z,8.40
2022-09-24T13:56:02.042Z,7.90
2022-09-24T13:58:29.904Z,7.80
2022-09-24T14:00:58.735Z,8.15
2022-09-24T14:03:36.452Z,9.57
2022-09-24T14:06:11.224Z,9.02
2022-09-24T14:08:42.232Z,8.95
2022-09-24T14:11:18.976Z,8.38
2022-09-24T14:13:46.106Z,8.57
2022-09-24T14:16:22.010Z,8.32
2022-09-24T14:18:48.895Z,8.57
2022-09-24T14:21:35.096Z,8.63
2022-09-24T14:24:14.727Z,8.75
2022-09-24T14:26:49.622Z,9.30
2022-09-24T14:29:22.120Z,10.27
2022-09-24T14:32:00.034Z,9.75
2022-09-24T14:34:28.272Z,8.70
2022-09-24T14:36:58.343Z,10.25
2022-09-24T14:39:28.780Z,10.30
2022-09-24T14:41:57.742Z,10.18
2022-09-24T14:44:29.580Z,9.63
2022-09-24T14:46:59.911Z,10.77
2022-09-24T14:49:42.827Z,10.20
2022-09-24T14:52:33.191Z,10.07
2022-09-24T14:55:15.618Z,11.02
2022-09-24T14:57:48.040Z,11.30
2022-09-24T15:00:25.229Z,10.90
2022-09-24T15:03:05.718Z,9.73
2022-09-24T15:05:32.857Z,9.52
2022-09-24T15:08:19.127Z,10.18
2022-09-24T15:10:57.298Z,11.00
2022-09-24T15:13:35.708Z,11.27
2022-09-24T15:16:17.808Z,9.50
2022-09-24T15:18:44.723Z,12.18
2022-09-24T15:21:13.202Z,12.48
2022-09-24T15:23:40.132Z,11.38
2022-09-24T15:26:07.118Z,13.15
2022-09-24T15:28:33.629Z,12.25
2022-09-24T15:31:00.573Z,11.85
2022-09-24T15:33:27.107Z,12.18
2022-09-24T15:35:54.602Z,12.98
2022-09-24T15:38:21.159Z,11.75
2022-09-24T15:40:51.722Z,12.27
2022-09-24T15:43:23.397Z,12.90
2022-09-24T15:45:51.284Z,12.02
2022-09-24T15:48:18.275Z,12.40
2022-09-24T15:50:48.276Z,12.73
2022-09-24T15:53:26.155Z,11.95
2022-09-24T15:55:55.311Z,12.65
2022-09-24T15:58:23.225Z,13.60
2022-09-24T16:00:50.272Z,12.10
2022-09-24T16:03:21.452Z,11.98
2022-09-24T16:05:48.829Z,14.15
2022-09-24T16:08:15.877Z,13.85
2022-09-24T16:10:43.634Z,12.95
2022-09-24T16:13:11.550Z,13.63
2022-09-24T16:15:39.455Z,13.65
2022-09-24T16:18:07.929Z,12.65
2022-09-24T16:20:38.243Z,14.00
2022-09-24T16:23:04.731Z,14.23
2022-09-24T16:25:31.732Z,13.77
2022-09-24T16:27:59.088Z,13.40
2022-09-24T16:30:25.593Z,14.77
2022-09-24T16:32:52.756Z,13.95
2022-09-24T16:35:19.297Z,14.52
2022-09-24T16:37:46.211Z,14.18
2022-09-24T16:40:13.183Z,14.48
2022-09-24T16:42:39.779Z,14.38
2022-09-24T16:45:07.564Z,14.98
2022-09-24T16:47:34.066Z,14.45
2022-09-24T16:50:01.063Z,12.80
2022-09-24T16:52:31.410Z,14.57
2022-09-24T16:54:58.656Z,15.57
2022-09-24T16:57:25.162Z,14.73
2022-09-24T16:59:52.061Z,14.52
2022-09-24T17:02:20.001Z,14.77
2022-09-24T17:04:47.079Z,15.98
2022-09-24T17:07:13.592Z,15.40
2022-09-24T17:09:59.107Z,16.55
2022-09-24T17:12:25.663Z,15.07
2022-09-24T17:14:52.931Z,16.65
2022-09-24T17:17:20.033Z,15.00
2022-09-24T17:19:46.559Z,14.95
2022-09-24T17:22:13.475Z,14.35
2022-09-24T17:24:40.480Z,14.30
2022-09-24T17:27:08.344Z,14.68
2022-09-24T17:29:34.903Z,14.80
2022-09-24T17:32:02.021Z,15.40
2022-09-24T17:34:28.765Z,16.70
2022-09-24T17:36:55.772Z,17.40
2022-09-24T17:39:22.438Z,17.33
2022-09-24T17:41:50.351Z,16.50
2022-09-24T17:44:17.811Z,16.48
2022-09-24T17:46:44.945Z,15.32
2022-09-24T17:49:12.337Z,18.40
2022-09-24T17:51:39.172Z,17.92
2022-09-24T17:54:12.486Z,17.38
2022-09-24T17:56:40.334Z,17.05
2022-09-24T17:59:09.009Z,17.48
2022-09-24T18:01:37.999Z,16.73
2022-09-24T18:04:07.604Z,17.35
2022-09-24T18:06:37.955Z,16.52
2022-09-24T18:09:05.207Z,16.35
2022-09-24T18:11:37.208Z,16.33
2022-09-24T18:14:04.236Z,17.23
2022-09-24T18:16:33.063Z,16.65
2022-09-24T18:19:01.728Z,16.00
2022-09-24T18:21:29.802Z,18.23
2022-09-24T18:23:58.410Z,20.25
2022-09-24T18:26:29.963Z,18.83
2022-09-24T18:28:58.898Z,18.17
2022-09-24T18:31:28.207Z,17.77
2022-09-24T18:33:57.995Z,18.48
2022-09-24T18:36:26.136Z,17.70
2022-09-24T18:38:53.846Z,18.10
2022-09-24T18:41:23.022Z,19.38
2022-09-24T18:43:51.279Z,17.98
2022-09-24T18:46:19.407Z,19.30
2022-09-24T18:48:48.835Z,19.65
2022-09-24T18:51:19.201Z,19.58
2022-09-24T18:53:54.390Z,21.50
2022-09-24T18:56:21.859Z,19.55
2022-09-24T18:58:48.836Z,18.00
2022-09-24T19:01:17.004Z,19.15
2022-09-24T19:03:43.644Z,19.52
2022-09-24T19:06:12.725Z,22.40
2022-09-24T19:08:41.027Z,20.80
2022-09-24T19:11:11.247Z,20.20
2022-09-24T19:13:39.574Z,18.90
2022-09-24T19:16:16.684Z,18.42
2022-09-24T19:18:43.691Z,16.80
2022-09-24T19:21:13.372Z,19.05
2022-09-24T19:23:48.640Z,23.30
2022-09-24T19:26:19.795Z,20.30
2022-09-24T19:28:47.320Z,20.25
2022-09-24T19:31:17.475Z,18.95
2022-09-24T19:33:44.736Z,17.30
2022-09-24T19:36:11.463Z,18.08
2022-09-24T19:38:40.830Z,18.15
2022-09-24T19:41:13.707Z,17.77
2022-09-24T19:43:43.119Z,16.10
2022-09-24T19:46:14.849Z,17.50
2022-09-24T19:48:44.295Z,15.85
2022-09-24T19:51:16.722Z,14.52
2022-09-24T19:53:46.977Z,15.88
2022-09-24T19:56:14.191Z,18.10
2022-09-24T19:58:41.663Z,18.83
2022-09-24T20:01:11.410Z,18.90
2022-09-24T20:03:41.879Z,19.23
2022-09-24T20:06:14.320Z,21.00
2022-09-24T20:08:41.447Z,17.08
2022-09-24T20:11:11.192Z,17.52
2022-09-24T20:13:39.080Z,16.08
2022-09-24T20:16:07.954Z,14.85
2022-09-24T20:18:36.100Z,15.68
2022-09-24T20:21:04.600Z,17.38
2022-09-24T20:23:32.026Z,17.83
2022-09-24T20:26:17.577Z,19.38
2022-09-24T20:28:44.706Z,17.95
2022-09-24T20:31:12.910Z,18.17
2022-09-24T20:33:41.407Z,18.02
2022-09-24T20:36:15.219Z,16.60
2022-09-24T20:38:44.783Z,17.42
2022-09-24T20:41:18.048Z,17.98
2022-09-24T20:43:47.904Z,18.50
2022-09-24T20:46:24.433Z,18.30
2022-09-24T20:48:59.830Z,16.27
2022-09-24T20:51:29.339Z,18.00
2022-09-24T20:53:56.163Z,18.75
2022-09-24T20:56:23.207Z,17.38
2022-09-24T20:58:51.791Z,16.20
2022-09-24T21:01:19.532Z,17.58
2022-09-24T21:03:50.309Z,17.52
2022-09-24T21:06:19.263Z,17.25
2022-09-24T21:08:47.197Z,18.15
2022-09-24T21:11:19.857Z,17.05
2022-09-24T21:13:49.878Z,16.15
2022-09-24T21:16:21.328Z,16.60
2022-09-24T21:18:49.496Z,15.20
2022-09-24T21:21:18.810Z,16.08
2022-09-24T21:23:47.748Z,19.08
2022-09-24T21:26:19.982Z,16.73
2022-09-24T21:28:49.389Z,15.95
2022-09-24T21:31:18.554Z,17.40
2022-09-24T21:33:46.907Z,17.60
2022-09-24T21:36:18.815Z,18.90
2022-09-24T21:38:59.246Z,17.67
2022-09-24T21:41:28.875Z,18.15
2022-09-24T21:43:55.762Z,17.42
2022-09-24T21:46:23.634Z,17.05
2022-09-24T21:48:51.595Z,17.25
2022-09-24T21:51:21.744Z,17.13
2022-09-24T21:53:52.177Z,17.88
2022-09-24T21:56:21.900Z,16.50
2022-09-24T21:58:50.228Z,17.30
2022-09-24T22:01:25.990Z,16.58
2022-09-24T22:03:59.407Z,16.77
2022-09-24T22:06:28.955Z,15.57
2022-09-24T22:09:04.028Z,16.38
2022-09-24T22:11:31.475Z,16.27
2022-09-24T22:14:02.700Z,15.63
2022-09-24T22:16:31.095Z,16.13
2022-09-24T22:18:58.191Z,17.17
2022-09-24T22:21:25.032Z,16.92
2022-09-24T22:23:51.941Z,16.17
2022-09-24T22:26:19.219Z,17.20
2022-09-24T22:28:46.229Z,17.63
2022-09-24T22:31:17.626Z,17.58
2022-09-24T22:34:03.799Z,18.05
2022-09-24T22:36:32.716Z,19.13
2022-09-24T22:39:00.740Z,17.20
2022-09-24T22:41:30.163Z,18.63
2022-09-24T22:43:57.773Z,16.80
2022-09-24T22:46:27.653Z,20.45
2022-09-24T22:48:56.021Z,20.10
2022-09-24T22:51:24.352Z,19.55
2022-09-24T22:53:52.381Z,18.17
2022-09-24T22:56:21.448Z,17.80
2022-09-24T22:58:54.282Z,17.45
2022-09-24T23:01:26.850Z,18.20
2022-09-24T23:03:55.564Z,16.42
2022-09-24T23:06:23.347Z,17.58
2022-09-24T23:08:51.305Z,17.52
2022-09-24T23:11:20.728Z,17.65
2022-09-24T23:13:55.509Z,16.67
2022-09-24T23:16:27.867Z,18.17
2022-09-24T23:18:57.543Z,17.55
2022-09-24T23:21:26.330Z,18.17
2022-09-24T23:23:55.188Z,18.17
2022-09-24T23:26:23.020Z,18.05
2022-09-24T23:28:53.189Z,19.00
2022-09-24T23:31:28.736Z,18.90
2022-09-24T23:33:57.394Z,18.13
2022-09-24T23:36:24.775Z,17.45
2022-09-24T23:38:52.556Z,17.45
2022-09-24T23:41:20.316Z,16.77
2022-09-24T23:43:47.371Z,17.95
2022-09-24T23:46:14.516Z,15.93
2022-09-24T23:48:42.082Z,16.73
2022-09-24T23:51:10.139Z,17.58
2022-09-24T23:53:37.151Z,19.40
2022-09-24T23:56:06.370Z,18.85
2022-09-24T23:58:33.402Z,17.75
